Time;durP1;ratioP1;P1;durP2;ratioP2;P2;SDS_P1;SDS_P2;PMS_P1;PMS_P2;Temp;Humidity;BMP_temperature;BMP_pressure;BME280_temperature;BME280_humidity;BME280_pressure;Samples;Min_cycle;Max_cycle;Signal;HPM_P1;HPM_P2
2021/08/01 00:00:50;;;;;;;8.35;3.15;;;18.10;94.90;;;;;;5054465;28;20025;-72
2021/08/01 00:03:16;;;;;;;5.45;2.78;;;18.00;95.10;;;;;;5054359;28;20044;-73
2021/08/01 00:05:47;;;;;;;7.78;3.10;;;18.00;95.00;;;;;;5054682;28;20524;-74
2021/08/01 00:08:13;;;;;;;5.72;3.25;;;18.10;95.10;;;;;;5053980;28;20036;-74
2021/08/01 00:10:39;;;;;;;6.00;3.33;;;18.00;95.20;;;;;;5054034;28;20033;-74
2021/08/01 00:13:05;;;;;;;6.78;2.88;;;18.00;95.40;;;;;;5054078;28;20044;-72
2021/08/01 00:15:30;;;;;;;9.32;3.45;;;18.10;95.30;;;;;;5054053;28;20033;-74
2021/08/01 00:17:56;;;;;;;11.35;3.60;;;18.10;95.20;;;;;;5054591;28;20490;-73
2021/08/01 00:20:22;;;;;;;7.00;3.40;;;18.10;95.20;;;;;;5054063;28;20045;-73
2021/08/01 00:22:48;;;;;;;6.00;3.55;;;18.00;95.20;;;;;;5053818;28;20497;-74
2021/08/01 00:25:13;;;;;;;4.78;2.92;;;18.10;95.20;;;;;;5053974;28;20070;-74
2021/08/01 00:27:40;;;;;;;4.82;3.35;;;18.10;95.10;;;;;;5053687;28;20514;-74
2021/08/01 00:30:09;;;;;;;5.30;3.05;;;18.10;95.20;;;;;;5054172;28;20033;-72
2021/08/01 00:32:35;;;;;;;5.57;3.47;;;18.10;95.20;;;;;;5053933;28;20451;-75
2021/08/01 00:35:00;;;;;;;6.30;3.58;;;18.10;95.30;;;;;;5053736;28;20175;-72
2021/08/01 00:37:26;;;;;;;6.57;3.90;;;18.10;95.20;;;;;;5052736;28;20036;-72
2021/08/01 00:39:52;;;;;;;7.07;3.83;;;18.00;95.30;;;;;;5053760;28;20033;-73
2021/08/01 00:42:18;;;;;;;7.20;3.38;;;18.00;95.30;;;;;;5053546;28;20104;-73
2021/08/01 00:44:44;;;;;;;8.15;3.80;;;18.00;95.40;;;;;;5053274;28;20100;-72
2021/08/01 00:47:11;;;;;;;6.78;3.75;;;18.00;95.60;;;;;;5053496;28;20634;-73
2021/08/01 00:49:37;;;;;;;5.85;3.10;;;18.00;95.50;;;;;;5053669;28;20036;-73
2021/08/01 00:52:05;;;;;;;5.50;3.45;;;18.00;95.50;;;;;;5052461;28;20041;-74
2021/08/01 00:54:32;;;;;;;8.15;3.70;;;18.00;95.60;;;;;;5053294;28;20029;-73
2021/08/01 00:56:58;;;;;;;6.05;3.20;;;17.90;95.60;;;;;;5053875;28;20334;-73
2021/08/01 00:59:24;;;;;;;5.20;3.40;;;17.90;95.70;;;;;;5053496;28;20036;-73
2021/08/01 01:02:15;;;;;;;5.90;2.90;;;17.90;95.80;;;;;;5053177;28;20044;-73
2021/08/01 01:05:02;;;;;;;5.28;3.40;;;17.90;95.60;;;;;;5053014;28;20029;-73
2021/08/01 01:07:51;;;;;;;5.45;3.15;;;17.90;95.50;;;;;;5053262;28;20037;-73
2021/08/01 01:10:25;;;;;;;4.97;3.17;;;17.90;95.50;;;;;;5053087;28;20029;-72
2021/08/01 01:13:00;;;;;;;6.40;3.33;;;18.00;95.60;;;;;;5053072;28;20504;-73
2021/08/01 01:15:27;;;;;;;6.47;2.90;;;18.00;95.50;;;;;;5052711;28;20029;-71
2021/08/01 01:17:54;;;;;;;6.25;3.28;;;17.90;95.60;;;;;;5053364;28;20036;-72
2021/08/01 01:20:37;;;;;;;4.45;2.88;;;17.80;95.60;;;;;;5052851;28;20117;-72
2021/08/01 01:23:31;;;;;;;8.60;3.85;;;17.90;95.60;;;;;;5052681;28;20071;-73
2021/08/01 01:26:01;;;;;;;6.95;3.35;;;17.90;95.60;;;;;;5051914;28;20025;-72
2021/08/01 01:29:04;;;;;;;5.93;3.50;;;17.90;95.50;;;;;;5053014;28;20155;-73
2021/08/01 01:31:37;;;;;;;3.30;3.00;;;17.90;95.50;;;;;;5052734;28;20036;-73
2021/08/01 01:34:25;;;;;;;5.13;3.22;;;17.80;95.60;;;;;;5052616;28;20025;-73
2021/08/01 01:36:53;;;;;;;6.18;3.28;;;17.80;95.60;;;;;;5034453;28;20095;-73
2021/08/01 01:39:19;;;;;;;;;;;17.90;95.50;;;;;;5033171;28;20079;-72
2021/08/01 01:41:46;;;;;;;3.95;3.00;;;17.90;95.60;;;;;;5032045;28;19901;-72
2021/08/01 01:44:12;;;;;;;8.32;4.07;;;17.90;95.50;;;;;;5032497;28;20095;-73
2021/08/01 01:46:39;;;;;;;6.75;3.88;;;17.90;95.60;;;;;;5032428;28;20040;-74
2021/08/01 01:49:06;;;;;;;7.57;4.30;;;17.80;95.60;;;;;;5031333;28;20661;-73
2021/08/01 01:51:33;;;;;;;8.43;3.92;;;17.80;95.70;;;;;;5032473;28;20029;-73
2021/08/01 01:54:00;;;;;;;11.05;3.83;;;17.80;95.80;;;;;;5032942;28;20023;-73
2021/08/01 01:56:27;;;;;;;11.13;4.25;;;17.70;95.60;;;;;;5031515;28;20490;-73
2021/08/01 01:58:54;;;;;;;6.35;3.45;;;17.70;95.70;;;;;;5032527;28;20087;-74
2021/08/01 02:01:19;;;;;;;5.38;3.92;;;17.70;95.80;;;;;;5032265;28;20033;-73
2021/08/01 02:03:45;;;;;;;6.88;4.20;;;17.70;95.90;;;;;;5032129;28;20120;-74
2021/08/01 02:06:16;;;;;;;6.43;4.30;;;17.70;95.90;;;;;;5031900;28;20030;-73
2021/08/01 02:09:05;;;;;;;8.07;3.95;;;17.70;95.90;;;;;;5032465;28;20566;-73
2021/08/01 02:11:38;;;;;;;5.13;3.88;;;17.60;96.00;;;;;;5031937;28;20026;-72
2021/08/01 02:14:14;;;;;;;7.53;3.35;;;17.60;96.00;;;;;;5031173;28;20665;-72
2021/08/01 02:16:42;;;;;;;6.25;3.25;;;17.60;95.90;;;;;;5031951;28;20041;-72
2021/08/01 02:19:09;;;;;;;4.13;3.20;;;17.60;95.80;;;;;;5031928;28;20038;-72
2021/08/01 02:21:38;;;;;;;9.43;3.72;;;17.60;95.90;;;;;;5030375;28;20045;-73
2021/08/01 02:24:05;;;;;;;7.35;3.55;;;17.60;95.90;;;;;;5032273;28;20113;-72
2021/08/01 02:26:34;;;;;;;7.72;3.80;;;17.60;96.00;;;;;;5031745;28;20523;-72
2021/08/01 02:29:00;;;;;;;7.55;3.58;;;17.60;96.00;;;;;;5031701;28;20037;-73
2021/08/01 02:31:27;;;;;;;6.35;3.20;;;17.60;96.10;;;;;;5031584;28;20033;-73
2021/08/01 02:33:53;;;;;;;6.40;3.60;;;17.60;96.10;;;;;;5031740;28;20475;-73
2021/08/01 02:36:20;;;;;;;7.05;3.85;;;17.60;96.10;;;;;;5031326;28;20386;-73
2021/08/01 02:38:47;;;;;;;5.47;3.33;;;17.60;96.00;;;;;;5031952;28;20025;-73
2021/08/01 02:41:29;;;;;;;7.15;3.67;;;17.60;96.00;;;;;;5031532;28;20533;-73
2021/08/01 02:43:56;;;;;;;4.30;3.47;;;17.60;96.00;;;;;;5031708;28;20462;-73
2021/08/01 02:46:25;;;;;;;7.00;4.15;;;17.50;96.10;;;;;;5031259;28;20103;-73
2021/08/01 02:48:54;;;;;;;6.90;3.67;;;17.50;96.30;;;;;;5030404;28;20037;-73
2021/08/01 02:51:20;;;;;;;9.10;3.97;;;17.60;96.30;;;;;;5031497;28;20128;-74
2021/08/01 02:53:49;;;;;;;5.72;4.30;;;17.60;96.10;;;;;;5032054;28;20103;-73
2021/08/01 02:56:21;;;;;;;9.88;4.13;;;17.60;96.20;;;;;;5031167;28;20056;-73
2021/08/01 02:58:49;;;;;;;6.85;3.80;;;17.60;96.10;;;;;;5030235;28;20113;-72
2021/08/01 03:01:15;;;;;;;5.13;3.90;;;17.60;96.20;;;;;;5031132;28;20026;-72
2021/08/01 03:03:42;;;;;;;7.45;4.45;;;17.50;96.30;;;;;;5030943;28;20041;-73
2021/08/01 03:06:09;;;;;;;5.82;4.00;;;17.60;96.20;;;;;;5030626;28;20508;-73
2021/08/01 03:08:35;;;;;;;6.53;3.80;;;17.60;96.10;;;;;;5030899;28;20048;-73
2021/08/01 03:11:01;;;;;;;6.57;3.38;;;17.60;96.10;;;;;;5030950;28;20029;-73
2021/08/01 03:13:26;;;;;;;6.07;4.22;;;17.70;96.20;;;;;;5030873;28;20029;-73
2021/08/01 03:15:52;;;;;;;5.85;3.88;;;17.70;96.10;;;;;;5031111;28;20463;-73
2021/08/01 03:18:18;;;;;;;5.88;3.75;;;17.70;96.10;;;;;;5030988;28;20025;-73
2021/08/01 03:20:44;;;;;;;10.93;4.05;;;17.70;96.00;;;;;;5031416;28;20025;-73
2021/08/01 03:23:10;;;;;;;5.70;4.05;;;17.70;96.10;;;;;;5030645;28;20057;-72
2021/08/01 03:25:35;;;;;;;9.98;4.57;;;17.70;96.10;;;;;;5031103;28;20034;-73
2021/08/01 03:28:02;;;;;;;10.65;4.18;;;17.70;96.20;;;;;;5030941;28;20037;-73
2021/08/01 03:30:28;;;;;;;9.52;4.47;;;17.60;96.20;;;;;;5029865;28;20033;-73
2021/08/01 03:32:54;;;;;;;6.90;3.90;;;17.70;96.10;;;;;;5031312;28;20465;-73
2021/08/01 03:35:20;;;;;;;7.07;4.22;;;17.70;96.00;;;;;;5030828;28;20041;-73
2021/08/01 03:37:46;;;;;;;6.65;4.20;;;17.70;95.90;;;;;;5030799;28;20117;-72
2021/08/01 03:40:15;;;;;;;8.10;4.13;;;17.70;96.00;;;;;;5030722;28;20112;-72
2021/08/01 03:42:41;;;;;;;12.73;3.92;;;17.80;95.90;;;;;;5029917;28;20121;-72
2021/08/01 03:45:08;;;;;;;5.90;4.00;;;17.80;96.00;;;;;;5031080;28;20112;-73
2021/08/01 03:47:34;;;;;;;6.13;3.50;;;17.80;96.00;;;;;;5030851;28;20053;-74
2021/08/01 03:50:00;;;;;;;9.65;4.15;;;17.80;96.00;;;;;;5029425;28;20618;-74
2021/08/01 03:52:26;;;;;;;9.90;4.00;;;17.80;96.00;;;;;;5029740;28;20026;-74
2021/08/01 03:54:52;;;;;;;9.70;4.07;;;17.80;96.10;;;;;;5030808;28;20037;-74
2021/08/01 03:57:17;;;;;;;6.45;3.97;;;17.80;96.20;;;;;;5030883;28;20507;-72
2021/08/01 03:59:43;;;;;;;10.40;4.30;;;17.70;96.10;;;;;;5031117;28;20388;-72
2021/08/01 04:02:09;;;;;;;7.97;4.50;;;17.80;96.10;;;;;;5029554;28;20052;-74
2021/08/01 04:04:34;;;;;;;6.85;3.80;;;17.80;96.10;;;;;;5030796;28;20048;-74
2021/08/01 04:07:00;;;;;;;5.25;4.00;;;17.80;96.10;;;;;;5030445;28;20463;-73
2021/08/01 04:09:26;;;;;;;7.10;4.47;;;17.80;96.20;;;;;;5030730;28;20225;-74
2021/08/01 04:11:52;;;;;;;8.98;4.63;;;17.70;96.20;;;;;;5031105;28;20087;-74
2021/08/01 04:14:17;;;;;;;11.20;5.10;;;17.70;96.20;;;;;;5030828;28;20049;-73
2021/08/01 04:16:43;;;;;;;9.43;4.03;;;17.70;96.20;;;;;;5030366;28;20359;-73
2021/08/01 04:19:10;;;;;;;6.55;4.03;;;17.70;96.20;;;;;;5030431;28;20033;-73
2021/08/01 04:21:39;;;;;;;7.30;3.92;;;17.70;96.20;;;;;;5033726;28;20493;-73
2021/08/01 04:24:05;;;;;;;6.10;4.95;;;17.70;96.30;;;;;;5034404;28;20532;-73
2021/08/01 04:26:31;;;;;;;8.20;4.65;;;17.70;96.50;;;;;;5034087;28;20040;-73
2021/08/01 04:28:59;;;;;;;12.20;4.97;;;17.70;96.40;;;;;;5032981;28;20025;-74
2021/08/01 04:31:25;;;;;;;7.97;4.63;;;17.70;96.40;;;;;;5034329;28;20022;-72
2021/08/01 04:33:51;;;;;;;10.35;4.90;;;17.80;96.30;;;;;;5033959;28;20471;-73
2021/08/01 04:36:16;;;;;;;7.32;4.47;;;17.70;96.40;;;;;;5033754;28;20097;-73
2021/08/01 04:38:42;;;;;;;9.73;4.07;;;17.70;96.40;;;;;;5034253;28;20033;-73
2021/08/01 04:41:07;;;;;;;9.82;5.05;;;17.70;96.60;;;;;;5034423;28;20040;-73
2021/08/01 04:43:33;;;;;;;8.68;5.20;;;17.70;96.60;;;;;;5033781;28;20026;-74
2021/08/01 04:45:59;;;;;;;9.23;4.63;;;17.70;96.70;;;;;;5034051;28;20033;-72
2021/08/01 04:48:24;;;;;;;6.95;5.05;;;17.70;96.70;;;;;;5033381;28;20112;-73
2021/08/01 04:50:50;;;;;;;8.57;5.03;;;17.70;96.70;;;;;;5033911;28;20466;-73
2021/08/01 04:53:15;;;;;;;11.52;6.07;;;17.70;96.80;;;;;;5033624;28;20340;-74
2021/08/01 04:55:41;;;;;;;9.88;5.22;;;17.70;96.80;;;;;;5033425;28;20021;-73
2021/08/01 04:58:09;;;;;;;8.98;4.78;;;17.80;96.70;;;;;;5033597;28;20198;-73
2021/08/01 05:00:35;;;;;;;6.63;4.43;;;17.70;96.80;;;;;;5033264;28;20455;-74
2021/08/01 05:03:01;;;;;;;10.20;5.07;;;17.80;96.80;;;;;;5033654;28;20036;-73
2021/08/01 05:05:27;;;;;;;9.85;5.97;;;17.80;96.70;;;;;;5033349;28;20083;-74
2021/08/01 05:07:54;;;;;;;8.02;5.35;;;17.80;96.70;;;;;;5033145;28;20049;-73
2021/08/01 05:10:19;;;;;;;9.82;4.90;;;17.80;96.70;;;;;;5033108;28;20034;-73
2021/08/01 05:12:45;;;;;;;9.43;5.40;;;17.80;96.70;;;;;;5033079;28;20038;-73
2021/08/01 05:15:11;;;;;;;12.77;5.88;;;17.80;96.60;;;;;;5033071;28;20448;-73
2021/08/01 05:17:37;;;;;;;7.70;5.13;;;17.90;96.70;;;;;;5033518;28;20053;-72
2021/08/01 05:20:03;;;;;;;10.35;5.15;;;17.90;96.60;;;;;;5032983;28;20064;-73
2021/08/01 05:22:28;;;;;;;6.85;5.43;;;17.90;96.50;;;;;;5031833;28;20132;-73
2021/08/01 05:24:54;;;;;;;7.93;5.20;;;18.00;96.50;;;;;;5033076;28;20108;-73
2021/08/01 05:27:19;;;;;;;5.90;4.85;;;18.00;96.50;;;;;;5032907;28;20490;-73
2021/08/01 05:29:45;;;;;;;11.48;6.13;;;18.00;96.40;;;;;;5033613;28;20026;-74
2021/08/01 05:32:11;;;;;;;12.93;5.20;;;18.10;96.40;;;;;;5032453;28;20021;-73
2021/08/01 05:34:36;;;;;;;9.85;5.38;;;18.10;96.40;;;;;;5032704;28;20022;-73
2021/08/01 05:37:02;;;;;;;7.80;4.72;;;18.10;96.40;;;;;;5032781;28;20037;-75
2021/08/01 05:39:28;;;;;;;8.63;4.60;;;18.20;96.30;;;;;;5032623;28;20195;-73
2021/08/01 05:41:53;;;;;;;10.43;5.70;;;18.10;96.30;;;;;;5032064;28;20049;-74
2021/08/01 05:44:19;;;;;;;7.75;4.97;;;18.10;96.30;;;;;;5032600;28;20029;-73
2021/08/01 05:46:45;;;;;;;8.77;4.88;;;18.10;96.50;;;;;;5032532;28;20045;-73
2021/08/01 05:49:10;;;;;;;11.63;5.05;;;18.20;96.30;;;;;;5032362;28;20327;-73
2021/08/01 05:51:38;;;;;;;8.40;4.97;;;18.20;96.20;;;;;;5032417;28;20117;-73
2021/08/01 05:54:03;;;;;;;9.38;5.45;;;18.20;96.30;;;;;;5032943;28;20355;-73
2021/08/01 05:56:29;;;;;;;12.77;5.00;;;18.10;96.20;;;;;;5032484;28;20124;-73
2021/08/01 05:58:55;;;;;;;10.45;5.35;;;18.10;96.30;;;;;;5032204;28;20467;-75
2021/08/01 06:01:20;;;;;;;11.35;5.00;;;18.20;96.30;;;;;;5032206;28;20029;-73
2021/08/01 06:03:47;;;;;;;9.73;5.82;;;18.20;96.30;;;;;;5032235;28;20060;-75
2021/08/01 06:06:15;;;;;;;8.25;4.95;;;18.30;96.20;;;;;;5032014;28;20041;-73
2021/08/01 06:08:43;;;;;;;9.88;5.32;;;18.20;96.20;;;;;;5032457;28;20021;-74
2021/08/01 06:11:09;;;;;;;8.48;5.72;;;18.30;96.30;;;;;;5032145;28;20029;-74
2021/08/01 06:13:35;;;;;;;7.90;5.88;;;18.40;96.20;;;;;;5032135;28;20485;-73
2021/08/01 06:16:01;;;;;;;10.57;6.10;;;18.30;96.20;;;;;;5031163;28;20030;-73
2021/08/01 06:18:27;;;;;;;11.07;6.22;;;18.20;96.30;;;;;;5031045;28;20328;-74
2021/08/01 06:21:16;;;;;;;10.93;5.70;;;18.20;96.30;;;;;;5032397;28;20041;-73
2021/08/01 06:23:45;;;;;;;12.10;6.68;;;18.30;96.30;;;;;;5031832;28;20053;-73
2021/08/01 06:26:12;;;;;;;8.30;5.93;;;18.30;96.20;;;;;;5031965;28;20033;-73
2021/08/01 06:28:39;;;;;;;10.27;5.95;;;18.30;96.20;;;;;;5031903;28;20537;-73
2021/08/01 06:31:06;;;;;;;11.07;5.72;;;18.40;96.10;;;;;;5030883;28;20037;-73
2021/08/01 06:33:33;;;;;;;8.35;5.47;;;18.40;96.10;;;;;;5031591;28;20045;-72
2021/08/01 06:35:59;;;;;;;10.65;6.18;;;18.50;96.10;;;;;;5032132;28;20041;-74
2021/08/01 06:38:25;;;;;;;8.60;5.43;;;18.50;96.10;;;;;;5031318;28;20041;-72
2021/08/01 06:40:51;;;;;;;10.32;6.25;;;18.50;96.10;;;;;;5031632;28;20037;-74
2021/08/01 06:43:17;;;;;;;12.95;6.85;;;18.40;96.10;;;;;;5031111;28;20038;-73
2021/08/01 06:45:43;;;;;;;11.77;6.13;;;18.40;96.20;;;;;;5031574;28;20034;-74
2021/08/01 06:48:08;;;;;;;13.77;6.30;;;18.50;96.10;;;;;;5031472;28;20467;-73
2021/08/01 06:50:35;;;;;;;12.23;6.28;;;18.50;95.90;;;;;;5031819;28;20402;-73
2021/08/01 06:53:01;;;;;;;8.77;5.70;;;18.50;96.00;;;;;;5031713;28;20057;-73
2021/08/01 06:55:27;;;;;;;11.70;6.28;;;18.50;95.90;;;;;;5031235;28;20049;-73
2021/08/01 06:57:52;;;;;;;11.00;5.63;;;18.60;95.80;;;;;;5031277;28;20033;-74
2021/08/01 07:00:20;;;;;;;8.55;5.90;;;18.50;95.90;;;;;;5031291;28;20068;-72
2021/08/01 07:02:58;;;;;;;8.82;5.55;;;18.60;95.90;;;;;;5031563;28;20033;-73
2021/08/01 07:05:26;;;;;;;7.82;5.65;;;18.60;95.90;;;;;;5031226;28;20029;-73
2021/08/01 07:07:51;;;;;;;13.47;6.87;;;18.70;95.80;;;;;;5030948;28;20317;-73
2021/08/01 07:10:18;;;;;;;10.15;5.80;;;18.70;95.90;;;;;;5031262;28;20055;-72
2021/08/01 07:12:45;;;;;;;8.40;5.78;;;18.70;95.70;;;;;;5031108;28;20040;-73
2021/08/01 07:15:12;;;;;;;8.65;5.50;;;18.80;95.60;;;;;;5030836;28;20382;-73
2021/08/01 07:17:39;;;;;;;11.65;6.45;;;18.90;95.50;;;;;;5031550;28;20033;-73
2021/08/01 07:20:06;;;;;;;11.80;5.28;;;19.00;95.30;;;;;;5031088;28;20113;-72
2021/08/01 07:22:32;;;;;;;8.80;5.63;;;19.10;95.30;;;;;;5030606;28;20050;-72
2021/08/01 07:24:58;;;;;;;9.30;4.88;;;19.20;95.20;;;;;;5030885;28;20510;-73
2021/08/01 07:27:23;;;;;;;7.93;4.95;;;19.30;94.80;;;;;;5030779;28;20033;-74
2021/08/01 07:29:49;;;;;;;9.63;4.80;;;19.30;94.40;;;;;;5031293;28;20030;-73
2021/08/01 07:32:14;;;;;;;8.55;4.47;;;19.30;94.40;;;;;;5030888;28;20026;-74
2021/08/01 07:34:40;;;;;;;7.85;4.97;;;19.40;94.30;;;;;;5030737;28;20507;-73
2021/08/01 07:37:06;;;;;;;8.25;5.38;;;19.50;94.30;;;;;;5030980;28;20462;-73
2021/08/01 07:39:31;;;;;;;8.85;4.95;;;19.50;94.00;;;;;;5030661;28;20026;-71
2021/08/01 07:41:57;;;;;;;8.32;5.38;;;19.50;93.90;;;;;;5031015;28;20037;-73
2021/08/01 07:44:25;;;;;;;12.23;5.00;;;19.50;93.60;;;;;;5029602;28;20037;-73
2021/08/01 07:46:50;;;;;;;13.65;5.38;;;19.60;93.70;;;;;;5030538;28;20053;-74
2021/08/01 07:49:16;;;;;;;11.95;5.43;;;19.70;93.50;;;;;;5029785;28;20443;-72
2021/08/01 07:51:41;;;;;;;6.93;4.70;;;19.80;93.30;;;;;;5029600;28;20079;-73
2021/08/01 07:54:07;;;;;;;9.80;4.88;;;20.00;93.10;;;;;;5031040;28;20135;-72
2021/08/01 07:56:32;;;;;;;10.48;5.60;;;20.00;93.00;;;;;;5034002;28;20032;-73
2021/08/01 07:58:58;;;;;;;12.02;6.25;;;20.00;92.90;;;;;;5034765;28;20414;-73
2021/08/01 08:01:24;;;;;;;9.75;5.60;;;20.20;92.90;;;;;;5034527;28;20116;-72
2021/08/01 08:03:49;;;;;;;9.27;5.40;;;19.90;92.60;;;;;;5034539;28;20065;-73
2021/08/01 08:06:15;;;;;;;7.55;4.47;;;20.00;92.70;;;;;;5034153;28;20021;-73
2021/08/01 08:08:40;;;;;;;9.82;5.55;;;20.10;92.70;;;;;;5034694;28;20025;-73
2021/08/01 08:11:06;;;;;;;9.55;5.40;;;20.00;92.50;;;;;;5034222;28;20028;-73
2021/08/01 08:13:31;;;;;;;10.18;5.00;;;19.90;92.70;;;;;;5034174;28;20033;-73
2021/08/01 08:15:57;;;;;;;8.48;4.90;;;20.10;92.70;;;;;;5034149;28;20482;-72
2021/08/01 08:18:23;;;;;;;5.50;3.75;;;20.50;92.50;;;;;;5034050;28;20371;-72
2021/08/01 08:20:48;;;;;;;9.82;4.38;;;20.80;92.20;;;;;;5033545;28;20030;-71
2021/08/01 08:23:15;;;;;;;10.27;6.40;;;20.90;91.80;;;;;;5034012;28;20081;-72
2021/08/01 08:25:42;;;;;;;9.45;5.25;;;20.80;91.30;;;;;;5033970;28;20374;-73
2021/08/01 08:28:08;;;;;;;8.77;5.43;;;21.10;91.40;;;;;;5033928;28;20045;-73
2021/08/01 08:30:33;;;;;;;12.27;4.90;;;21.50;90.60;;;;;;5033927;28;20106;-73
2021/08/01 08:32:59;;;;;;;7.22;4.95;;;21.40;90.50;;;;;;5034373;28;20044;-73
2021/08/01 08:35:25;;;;;;;7.68;4.38;;;21.60;90.30;;;;;;5033884;28;20034;-73
2021/08/01 08:37:52;;;;;;;6.85;4.38;;;22.20;90.60;;;;;;5032647;28;20034;-72
2021/08/01 08:40:18;;;;;;;8.00;4.75;;;22.90;87.70;;;;;;5033928;28;20068;-73
2021/08/01 08:42:45;;;;;;;4.72;3.58;;;23.20;86.40;;;;;;5033251;28;20033;-72
2021/08/01 08:45:16;;;;;;;4.53;3.47;;;23.60;85.00;;;;;;5033619;28;20070;-73
2021/08/01 08:47:46;;;;;;;6.65;3.65;;;23.90;83.80;;;;;;5033963;28;20107;-74
2021/08/01 08:50:15;;;;;;;7.38;4.32;;;23.90;84.00;;;;;;5033290;28;20389;-72
2021/08/01 08:52:44;;;;;;;7.32;4.47;;;24.00;84.10;;;;;;5033231;28;20057;-73
2021/08/01 08:55:14;;;;;;;7.07;4.25;;;24.20;82.30;;;;;;5033533;28;20073;-73
2021/08/01 08:57:49;;;;;;;7.25;3.92;;;24.40;82.70;;;;;;5033380;28;20030;-73
2021/08/01 09:00:15;;;;;;;7.68;3.55;;;24.80;81.20;;;;;;5032322;28;20018;-72
2021/08/01 09:02:41;;;;;;;6.13;3.55;;;24.80;80.70;;;;;;5033738;28;20018;-74
2021/08/01 09:05:08;;;;;;;9.45;3.75;;;24.80;80.10;;;;;;5033080;28;20034;-73
2021/08/01 09:07:38;;;;;;;6.60;3.55;;;24.70;80.30;;;;;;5031616;28;20080;-73
2021/08/01 09:10:05;;;;;;;14.50;4.25;;;24.60;80.70;;;;;;5033055;28;20341;-74
2021/08/01 09:12:52;;;;;;;6.55;4.18;;;24.20;80.50;;;;;;5033360;28;20387;-74
2021/08/01 09:15:20;;;;;;;8.57;3.60;;;24.10;80.90;;;;;;5032262;28;20033;-72
2021/08/01 09:17:46;;;;;;;;;;;23.90;81.10;;;;;;5033968;28;20017;-73
2021/08/01 09:20:53;;;;;;;4.35;3.20;;;23.70;82.10;;;;;;5032918;28;19909;-73
2021/08/01 09:23:19;;;;;;;7.35;4.28;;;23.50;81.80;;;;;;5012463;28;20225;-71
2021/08/01 09:25:55;;;;;;;6.20;3.58;;;23.40;82.10;;;;;;5026282;28;20463;-74
2021/08/01 09:28:25;;;;;;;7.32;4.10;;;23.30;83.00;;;;;;5032658;28;20037;-73
2021/08/01 09:31:05;;;;;;;8.68;4.55;;;23.20;82.90;;;;;;5032887;28;20432;-72
2021/08/01 09:33:30;;;;;;;7.55;4.32;;;23.00;83.90;;;;;;5031673;28;20414;-73
2021/08/01 09:36:15;;;;;;;8.05;3.90;;;22.90;84.30;;;;;;5033136;28;20453;-72
2021/08/01 09:38:53;;;;;;;8.75;3.50;;;23.50;83.40;;;;;;5032726;28;20041;-72
2021/08/01 09:41:20;;;;;;;4.55;4.00;;;23.50;82.80;;;;;;5032556;28;20026;-72
2021/08/01 09:43:57;;;;;;;7.03;4.10;;;23.30;82.20;;;;;;5032422;28;20041;-73
2021/08/01 09:46:46;;;;;;;6.82;4.10;;;23.20;82.50;;;;;;5032472;28;20459;-73
2021/08/01 09:49:14;;;;;;;7.72;3.78;;;23.10;81.90;;;;;;5032395;28;20035;-72
2021/08/01 09:51:44;;;;;;;5.63;3.50;;;23.10;82.60;;;;;;5032479;28;20045;-73
2021/08/01 09:54:10;;;;;;;5.53;3.22;;;23.00;82.30;;;;;;5032308;28;20128;-72
2021/08/01 09:56:37;;;;;;;14.48;4.28;;;23.10;82.30;;;;;;5032721;28;20013;-72
2021/08/01 09:59:03;;;;;;;8.82;3.53;;;23.00;82.30;;;;;;5032407;28;20029;-72
2021/08/01 10:01:29;;;;;;;5.68;3.60;;;22.90;83.10;;;;;;5032047;28;20030;-70
2021/08/01 10:03:54;;;;;;;6.03;3.00;;;22.90;82.40;;;;;;5032269;28;20425;-72
2021/08/01 10:06:21;;;;;;;5.03;2.90;;;23.00;81.90;;;;;;5030962;28;20029;-73
2021/08/01 10:08:54;;;;;;;4.07;2.95;;;22.90;81.70;;;;;;5032343;28;20067;-73
2021/08/01 10:11:24;;;;;;;5.13;2.65;;;23.00;81.10;;;;;;5030821;28;20061;-71
2021/08/01 10:13:52;;;;;;;5.72;2.97;;;23.20;81.50;;;;;;5031910;28;20370;-73
2021/08/01 10:16:18;;;;;;;4.47;3.20;;;22.90;81.50;;;;;;5031845;28;20125;-72
2021/08/01 10:18:45;;;;;;;4.13;2.83;;;23.10;81.60;;;;;;5031134;28;20068;-73
2021/08/01 10:21:20;;;;;;;4.05;3.22;;;23.10;81.80;;;;;;5031703;28;20095;-73
2021/08/01 10:23:50;;;;;;;5.45;2.47;;;23.30;81.60;;;;;;5030988;28;20042;-72
2021/08/01 10:26:19;;;;;;;6.50;2.65;;;23.60;80.50;;;;;;5031557;28;20033;-73
2021/08/01 10:28:52;;;;;;;6.20;2.15;;;23.90;80.00;;;;;;5031798;28;20034;-72
2021/08/01 10:31:25;;;;;;;3.67;2.58;;;24.20;78.90;;;;;;5031804;28;20052;-73
2021/08/01 10:34:05;;;;;;;4.10;2.33;;;24.20;78.40;;;;;;5031762;28;20040;-72
2021/08/01 10:36:32;;;;;;;3.15;2.22;;;24.10;78.30;;;;;;5031464;28;20025;-73
2021/08/01 10:39:04;;;;;;;3.53;2.22;;;24.00;78.60;;;;;;5032054;28;20025;-72
2021/08/01 10:41:32;;;;;;;3.13;2.17;;;24.10;78.20;;;;;;5031816;28;20253;-72
2021/08/01 10:44:04;;;;;;;4.22;1.83;;;24.30;77.40;;;;;;5031537;28;20033;-71
2021/08/01 10:46:30;;;;;;;3.92;1.90;;;24.50;76.50;;;;;;5031154;28;20087;-72
2021/08/01 10:48:58;;;;;;;4.43;1.98;;;24.40;74.70;;;;;;5031359;28;20041;-71
2021/08/01 10:51:28;;;;;;;3.38;2.05;;;24.50;75.10;;;;;;5031056;28;20057;-72
2021/08/01 10:54:14;;;;;;;2.95;2.10;;;24.60;74.50;;;;;;5031618;28;20041;-72
2021/08/01 10:56:39;;;;;;;2.75;1.70;;;24.50;74.00;;;;;;5031265;28;20335;-73
2021/08/01 10:59:05;;;;;;;6.35;2.03;;;24.40;73.70;;;;;;5031430;28;20057;-73
2021/08/01 11:01:30;;;;;;;6.25;1.70;;;24.50;74.40;;;;;;5031224;28;20142;-71
2021/08/01 11:04:25;;;;;;;3.40;1.63;;;24.70;73.70;;;;;;5031146;28;20459;-73
2021/08/01 11:06:51;;;;;;;2.90;1.98;;;24.80;73.30;;;;;;5031073;28;20037;-72
2021/08/01 11:09:16;;;;;;;2.38;1.67;;;24.90;72.40;;;;;;5030990;28;20513;-72
2021/08/01 11:11:45;;;;;;;4.18;1.50;;;25.00;72.60;;;;;;5031591;28;20570;-73
2021/08/01 11:14:49;;;;;;;3.38;1.80;;;25.20;73.40;;;;;;5031046;28;20051;-74
2021/08/01 11:17:19;;;;;;;4.03;2.00;;;25.20;71.90;;;;;;5030884;28;20026;-74
2021/08/01 11:19:45;;;;;;;5.40;2.22;;;25.30;71.70;;;;;;5030596;28;20026;-73
2021/08/01 11:22:40;;;;;;;4.53;2.10;;;25.10;71.20;;;;;;5030677;28;20234;-73
2021/08/01 11:25:31;;;;;;;2.53;1.50;;;24.90;71.30;;;;;;5025869;28;20026;-72
2021/08/01 11:28:18;;;;;;;4.85;1.77;;;24.60;71.60;;;;;;5030732;28;20095;-72
2021/08/01 11:30:51;;;;;;;;;;;24.60;71.30;;;;;;5037576;28;20040;-73
2021/08/01 11:33:35;;;;;;;3.70;1.73;;;24.20;72.60;;;;;;5037385;28;19905;-72
2021/08/01 11:36:10;;;;;;;3.15;1.90;;;24.20;72.60;;;;;;5037670;28;20032;-71
2021/08/01 11:38:37;;;;;;;2.15;1.63;;;23.80;73.60;;;;;;5037159;28;20025;-71
2021/08/01 11:41:03;;;;;;;6.70;2.00;;;23.70;74.50;;;;;;5037181;28;20171;-71
2021/08/01 11:43:28;;;;;;;8.93;1.88;;;23.80;74.10;;;;;;5037179;28;20121;-73
2021/08/01 11:45:59;;;;;;;2.60;1.77;;;23.80;74.40;;;;;;5037493;28;20176;-72
2021/08/01 11:48:25;;;;;;;5.00;2.00;;;23.80;74.50;;;;;;5037185;28;20017;-72
2021/08/01 11:50:50;;;;;;;3.67;1.90;;;23.90;74.00;;;;;;5037542;28;20032;-71
2021/08/01 11:53:17;;;;;;;5.75;2.10;;;23.50;72.70;;;;;;5035783;28;20026;-72
2021/08/01 11:55:46;;;;;;;3.35;2.28;;;23.30;74.00;;;;;;5036038;28;20040;-72
2021/08/01 11:58:13;;;;;;;5.60;3.15;;;23.30;74.80;;;;;;5036948;28;20037;-72
2021/08/01 12:00:39;;;;;;;5.53;3.25;;;23.40;75.40;;;;;;5036992;28;20112;-71
2021/08/01 12:03:06;;;;;;;5.70;2.25;;;23.60;75.30;;;;;;5037338;28;20118;-72
2021/08/01 12:05:48;;;;;;;4.43;1.80;;;23.70;74.90;;;;;;5036920;28;20030;-72
2021/08/01 12:08:34;;;;;;;3.80;2.17;;;23.80;74.50;;;;;;5036722;28;20116;-71
2021/08/01 12:11:12;;;;;;;2.53;1.63;;;24.00;74.30;;;;;;5036985;28;20041;-71
2021/08/01 12:13:38;;;;;;;3.00;1.50;;;24.20;72.00;;;;;;5036914;28;20111;-72
2021/08/01 12:16:17;;;;;;;1.63;1.50;;;24.40;70.70;;;;;;5036935;28;20025;-72
2021/08/01 12:18:43;;;;;;;4.28;1.58;;;24.50;70.80;;;;;;5037052;28;20049;-72
2021/08/01 12:21:34;;;;;;;3.42;1.80;;;24.60;71.50;;;;;;5036864;28;20057;-73
2021/08/01 12:23:59;;;;;;;3.22;1.85;;;24.60;71.20;;;;;;5037394;28;20373;-73
2021/08/01 12:26:39;;;;;;;6.85;2.00;;;24.80;72.00;;;;;;5036908;28;20104;-73
2021/08/01 12:29:06;;;;;;;4.47;1.88;;;24.80;71.80;;;;;;5036832;28;20494;-72
2021/08/01 12:31:32;;;;;;;2.70;1.52;;;24.80;72.20;;;;;;5036383;28;20029;-73
2021/08/01 12:33:58;;;;;;;3.17;1.58;;;24.90;71.90;;;;;;5035871;28;20045;-72
2021/08/01 12:36:25;;;;;;;2.90;1.60;;;24.70;70.90;;;;;;5036772;28;20051;-72
2021/08/01 12:38:51;;;;;;;4.78;1.67;;;24.90;70.90;;;;;;5037047;28;20357;-73
2021/08/01 12:41:20;;;;;;;3.78;3.08;;;24.80;69.50;;;;;;5033947;28;20083;-73
2021/08/01 12:43:46;;;;;;;6.00;1.70;;;24.90;69.80;;;;;;5033570;28;20025;-73
2021/08/01 12:46:19;;;;;;;7.07;3.28;;;25.10;70.00;;;;;;5033596;28;20031;-72
2021/08/01 12:48:48;;;;;;;2.33;1.58;;;25.10;68.90;;;;;;5033562;28;20422;-73
2021/08/01 12:51:14;;;;;;;6.32;3.10;;;25.30;70.00;;;;;;5033261;28;20025;-72
2021/08/01 12:53:41;;;;;;;2.35;2.08;;;25.20;68.60;;;;;;5033930;28;20096;-72